<?xml version="1.0" encoding="UTF-8" standalone="no" ?>
<gpx xmlns="http://www.topografix.com/GPX/1/1" xmlns:xsi="http://www.w3.org/2001/XMLSchema-instance" xsi:schemaLocation="http://www.topografix.com/GPX/1/1 http://www.topografix.com/GPX/1/1/gpx.xsd" version="1.1" creator="VisuGPX - https://www.visugpx.com">
  <metadata>
    <name>ST XANDRE</name>
  </metadata>
  <trk>
    <name><![CDATA[8685686-B-ST XANDRE, jusqu'au canal]]></name>
    <trkseg>
      <trkpt lat="46.20601" lon="-1.09466">
        <ele>16</ele>
        <time>2021-02-25T10:36:36Z</time>
      </trkpt>
      <trkpt lat="46.20578" lon="-1.09465">
        <ele>16</ele>
        <time>2021-02-25T10:37:07Z</time>
      </trkpt>
      <trkpt lat="46.20577" lon="-1.0941">
        <ele>16</ele>
        <time>2021-02-25T10:37:58Z</time>
      </trkpt>
      <trkpt lat="46.20563" lon="-1.09295">
        <ele>16</ele>
        <time>2021-02-25T10:39:45Z</time>
      </trkpt>
      <trkpt lat="46.2055" lon="-1.0922">
        <ele>15</ele>
        <time>2021-02-25T10:40:57Z</time>
      </trkpt>
      <trkpt lat="46.20538" lon="-1.09174">
        <ele>15</ele>
        <time>2021-02-25T10:41:42Z</time>
      </trkpt>
      <trkpt lat="46.20527" lon="-1.09151">
        <ele>14</ele>
        <time>2021-02-25T10:42:08Z</time>
      </trkpt>
      <trkpt lat="46.20499" lon="-1.09135">
        <ele>13</ele>
        <time>2021-02-25T10:42:48Z</time>
      </trkpt>
      <trkpt lat="46.20481" lon="-1.09121">
        <ele>13</ele>
        <time>2021-02-25T10:43:15Z</time>
      </trkpt>
      <trkpt lat="46.2047" lon="-1.09095">
        <ele>13</ele>
        <time>2021-02-25T10:43:44Z</time>
      </trkpt>
      <trkpt lat="46.20461" lon="-1.0885">
        <ele>11</ele>
        <time>2021-02-25T10:47:30Z</time>
      </trkpt>
      <trkpt lat="46.20467" lon="-1.08815">
        <ele>10</ele>
        <time>2021-02-25T10:48:03Z</time>
      </trkpt>
      <trkpt lat="46.2048" lon="-1.08783">
        <ele>10</ele>
        <time>2021-02-25T10:48:38Z</time>
      </trkpt>
      <trkpt lat="46.20469" lon="-1.08763">
        <ele>10</ele>
        <time>2021-02-25T10:49:01Z</time>
      </trkpt>
      <trkpt lat="46.20462" lon="-1.08726">
        <ele>10</ele>
        <time>2021-02-25T10:49:37Z</time>
      </trkpt>
      <trkpt lat="46.20458" lon="-1.08681">
        <ele>10</ele>
        <time>2021-02-25T10:50:19Z</time>
      </trkpt>
      <trkpt lat="46.20466" lon="-1.0861">
        <ele>10</ele>
        <time>2021-02-25T10:51:25Z</time>
      </trkpt>
      <trkpt lat="46.20466" lon="-1.08556">
        <ele>9</ele>
        <time>2021-02-25T10:52:15Z</time>
      </trkpt>
      <trkpt lat="46.2047" lon="-1.08487">
        <ele>9</ele>
        <time>2021-02-25T10:53:19Z</time>
      </trkpt>
      <trkpt lat="46.20472" lon="-1.08455">
        <ele>9</ele>
        <time>2021-02-25T10:53:49Z</time>
      </trkpt>
      <trkpt lat="46.20497" lon="-1.08379">
        <ele>11</ele>
        <time>2021-02-25T10:55:06Z</time>
      </trkpt>
      <trkpt lat="46.20507" lon="-1.08339">
        <ele>12</ele>
        <time>2021-02-25T10:55:46Z</time>
      </trkpt>
      <trkpt lat="46.2051" lon="-1.08302">
        <ele>12</ele>
        <time>2021-02-25T10:56:20Z</time>
      </trkpt>
      <trkpt lat="46.2051" lon="-1.08244">
        <ele>13</ele>
        <time>2021-02-25T10:57:14Z</time>
      </trkpt>
      <trkpt lat="46.205" lon="-1.08172">
        <ele>13</ele>
        <time>2021-02-25T10:58:21Z</time>
      </trkpt>
      <trkpt lat="46.20499" lon="-1.08148">
        <ele>13</ele>
        <time>2021-02-25T10:58:44Z</time>
      </trkpt>
      <trkpt lat="46.20712" lon="-1.07932">
        <ele>11</ele>
        <time>2021-02-25T11:04:31Z</time>
      </trkpt>
      <trkpt lat="46.2086" lon="-1.07782">
        <ele>7</ele>
        <time>2021-02-25T11:08:32Z</time>
      </trkpt>
      <trkpt lat="46.21064" lon="-1.07576">
        <ele>5</ele>
        <time>2021-02-25T11:14:04Z</time>
      </trkpt>
      <trkpt lat="46.2128" lon="-1.07352">
        <ele>7</ele>
        <time>2021-02-25T11:19:59Z</time>
      </trkpt>
      <trkpt lat="46.21411" lon="-1.07225">
        <ele>5</ele>
        <time>2021-02-25T11:23:29Z</time>
      </trkpt>
      <trkpt lat="46.21502" lon="-1.07126">
        <ele>3</ele>
        <time>2021-02-25T11:26:01Z</time>
      </trkpt>
      <trkpt lat="46.21486" lon="-1.06947">
        <ele>3</ele>
        <time>2021-02-25T11:28:48Z</time>
      </trkpt>
      <trkpt lat="46.21522" lon="-1.0691">
        <ele>2</ele>
        <time>2021-02-25T11:29:47Z</time>
      </trkpt>
      <trkpt lat="46.21564" lon="-1.06873">
        <ele>4</ele>
        <time>2021-02-25T11:30:53Z</time>
      </trkpt>
      <trkpt lat="46.21596" lon="-1.06816">
        <ele>4</ele>
        <time>2021-02-25T11:32:01Z</time>
      </trkpt>
      <trkpt lat="46.21632" lon="-1.06752">
        <ele>2</ele>
        <time>2021-02-25T11:33:17Z</time>
      </trkpt>
      <trkpt lat="46.21667" lon="-1.06719">
        <ele>3</ele>
        <time>2021-02-25T11:34:12Z</time>
      </trkpt>
      <trkpt lat="46.21729" lon="-1.06692">
        <ele>5</ele>
        <time>2021-02-25T11:35:39Z</time>
      </trkpt>
      <trkpt lat="46.21736" lon="-1.0666">
        <ele>6</ele>
        <time>2021-02-25T11:36:10Z</time>
      </trkpt>
      <trkpt lat="46.2177" lon="-1.06623">
        <ele>6</ele>
        <time>2021-02-25T11:37:07Z</time>
      </trkpt>
      <trkpt lat="46.21805" lon="-1.06621">
        <ele>6</ele>
        <time>2021-02-25T11:37:53Z</time>
      </trkpt>
      <trkpt lat="46.21871" lon="-1.06575">
        <ele>6</ele>
        <time>2021-02-25T11:39:31Z</time>
      </trkpt>
      <trkpt lat="46.21891" lon="-1.06545">
        <ele>5</ele>
        <time>2021-02-25T11:40:10Z</time>
      </trkpt>
      <trkpt lat="46.22045" lon="-1.06268">
        <ele>4</ele>
        <time>2021-02-25T11:45:38Z</time>
      </trkpt>
      <trkpt lat="46.22154" lon="-1.06064">
        <ele>3</ele>
        <time>2021-02-25T11:49:36Z</time>
      </trkpt>
      <trkpt lat="46.22172" lon="-1.0603">
        <ele>4</ele>
        <time>2021-02-25T11:50:15Z</time>
      </trkpt>
      <trkpt lat="46.22194" lon="-1.05957">
        <ele>4</ele>
        <time>2021-02-25T11:51:29Z</time>
      </trkpt>
      <trkpt lat="46.22207" lon="-1.05891">
        <ele>3</ele>
        <time>2021-02-25T11:52:32Z</time>
      </trkpt>
      <trkpt lat="46.22218" lon="-1.0578">
        <ele>3</ele>
        <time>2021-02-25T11:54:16Z</time>
      </trkpt>
      <trkpt lat="46.22226" lon="-1.05703">
        <ele>4</ele>
        <time>2021-02-25T11:55:28Z</time>
      </trkpt>
      <trkpt lat="46.22246" lon="-1.05676">
        <ele>4</ele>
        <time>2021-02-25T11:56:04Z</time>
      </trkpt>
      <trkpt lat="46.22282" lon="-1.05648">
        <ele>4</ele>
        <time>2021-02-25T11:56:59Z</time>
      </trkpt>
      <trkpt lat="46.22336" lon="-1.05581">
        <ele>4</ele>
        <time>2021-02-25T11:58:34Z</time>
      </trkpt>
      <trkpt lat="46.2235" lon="-1.05549">
        <ele>4</ele>
        <time>2021-02-25T11:59:09Z</time>
      </trkpt>
      <trkpt lat="46.22391" lon="-1.05365">
        <ele>3</ele>
        <time>2021-02-25T12:02:07Z</time>
      </trkpt>
      <trkpt lat="46.22468" lon="-1.05291">
        <ele>2</ele>
        <time>2021-02-25T12:04:10Z</time>
      </trkpt>
      <trkpt lat="46.2275" lon="-1.05179">
        <ele>3</ele>
        <time>2021-02-25T12:10:41Z</time>
      </trkpt>
      <trkpt lat="46.22732" lon="-1.0511">
        <ele>3</ele>
        <time>2021-02-25T12:11:49Z</time>
      </trkpt>
      <trkpt lat="46.22241" lon="-1.04908">
        <ele>5</ele>
        <time>2021-02-25T12:23:10Z</time>
      </trkpt>
      <trkpt lat="46.21943" lon="-1.04783">
        <ele>3</ele>
        <time>2021-02-25T12:30:04Z</time>
      </trkpt>
      <trkpt lat="46.2165" lon="-1.04662">
        <ele>3</ele>
        <time>2021-02-25T12:36:51Z</time>
      </trkpt>
      <trkpt lat="46.21373" lon="-1.04553">
        <ele>4</ele>
        <time>2021-02-25T12:43:14Z</time>
      </trkpt>
      <trkpt lat="46.21344" lon="-1.04698">
        <ele>4</ele>
        <time>2021-02-25T12:45:33Z</time>
      </trkpt>
      <trkpt lat="46.21159" lon="-1.04914">
        <ele>6</ele>
        <time>2021-02-25T12:50:51Z</time>
      </trkpt>
      <trkpt lat="46.21156" lon="-1.04938">
        <ele>6</ele>
        <time>2021-02-25T12:51:13Z</time>
      </trkpt>
      <trkpt lat="46.21187" lon="-1.04979">
        <ele>6</ele>
        <time>2021-02-25T12:52:09Z</time>
      </trkpt>
      <trkpt lat="46.21294" lon="-1.05196">
        <ele>7</ele>
        <time>2021-02-25T12:56:15Z</time>
      </trkpt>
      <trkpt lat="46.2131" lon="-1.05243">
        <ele>8</ele>
        <time>2021-02-25T12:57:04Z</time>
      </trkpt>
      <trkpt lat="46.21328" lon="-1.05352">
        <ele>7</ele>
        <time>2021-02-25T12:58:47Z</time>
      </trkpt>
      <trkpt lat="46.21401" lon="-1.05663">
        <ele>11</ele>
        <time>2021-02-25T13:03:50Z</time>
      </trkpt>
      <trkpt lat="46.21415" lon="-1.05703">
        <ele>10</ele>
        <time>2021-02-25T13:04:32Z</time>
      </trkpt>
      <trkpt lat="46.2103" lon="-1.05868">
        <ele>12</ele>
        <time>2021-02-25T13:13:28Z</time>
      </trkpt>
      <trkpt lat="46.21012" lon="-1.05823">
        <ele>12</ele>
        <time>2021-02-25T13:14:16Z</time>
      </trkpt>
      <trkpt lat="46.20976" lon="-1.06061">
        <ele>14</ele>
        <time>2021-02-25T13:18:01Z</time>
      </trkpt>
      <trkpt lat="46.20961" lon="-1.06176">
        <ele>14</ele>
        <time>2021-02-25T13:19:49Z</time>
      </trkpt>
      <trkpt lat="46.20936" lon="-1.06305">
        <ele>14</ele>
        <time>2021-02-25T13:21:52Z</time>
      </trkpt>
      <trkpt lat="46.2087" lon="-1.0644">
        <ele>13</ele>
        <time>2021-02-25T13:24:25Z</time>
      </trkpt>
      <trkpt lat="46.20824" lon="-1.06584">
        <ele>13</ele>
        <time>2021-02-25T13:26:51Z</time>
      </trkpt>
      <trkpt lat="46.20781" lon="-1.06782">
        <ele>9</ele>
        <time>2021-02-25T13:30:03Z</time>
      </trkpt>
      <trkpt lat="46.20752" lon="-1.06895">
        <ele>10</ele>
        <time>2021-02-25T13:31:54Z</time>
      </trkpt>
      <trkpt lat="46.20645" lon="-1.07149">
        <ele>11</ele>
        <time>2021-02-25T13:36:29Z</time>
      </trkpt>
      <trkpt lat="46.20607" lon="-1.07228">
        <ele>13</ele>
        <time>2021-02-25T13:37:58Z</time>
      </trkpt>
      <trkpt lat="46.20554" lon="-1.07378">
        <ele>11</ele>
        <time>2021-02-25T13:40:33Z</time>
      </trkpt>
      <trkpt lat="46.2052" lon="-1.07495">
        <ele>10</ele>
        <time>2021-02-25T13:42:31Z</time>
      </trkpt>
      <trkpt lat="46.20509" lon="-1.0763">
        <ele>11</ele>
        <time>2021-02-25T13:44:36Z</time>
      </trkpt>
      <trkpt lat="46.20505" lon="-1.07774">
        <ele>12</ele>
        <time>2021-02-25T13:46:49Z</time>
      </trkpt>
      <trkpt lat="46.20493" lon="-1.07959">
        <ele>13</ele>
        <time>2021-02-25T13:49:41Z</time>
      </trkpt>
      <trkpt lat="46.20491" lon="-1.08129">
        <ele>14</ele>
        <time>2021-02-25T13:52:18Z</time>
      </trkpt>
      <trkpt lat="46.205" lon="-1.08223">
        <ele>13</ele>
        <time>2021-02-25T13:53:46Z</time>
      </trkpt>
      <trkpt lat="46.205" lon="-1.08316">
        <ele>12</ele>
        <time>2021-02-25T13:55:11Z</time>
      </trkpt>
      <trkpt lat="46.20495" lon="-1.08359">
        <ele>11</ele>
        <time>2021-02-25T13:55:52Z</time>
      </trkpt>
      <trkpt lat="46.2047" lon="-1.08443">
        <ele>10</ele>
        <time>2021-02-25T13:57:16Z</time>
      </trkpt>
      <trkpt lat="46.20464" lon="-1.08468">
        <ele>9</ele>
        <time>2021-02-25T13:57:41Z</time>
      </trkpt>
      <trkpt lat="46.20461" lon="-1.08527">
        <ele>9</ele>
        <time>2021-02-25T13:58:35Z</time>
      </trkpt>
      <trkpt lat="46.2046" lon="-1.08597">
        <ele>10</ele>
        <time>2021-02-25T13:59:40Z</time>
      </trkpt>
      <trkpt lat="46.20455" lon="-1.08647">
        <ele>10</ele>
        <time>2021-02-25T14:00:27Z</time>
      </trkpt>
      <trkpt lat="46.20453" lon="-1.08693">
        <ele>10</ele>
        <time>2021-02-25T14:01:09Z</time>
      </trkpt>
      <trkpt lat="46.20457" lon="-1.08742">
        <ele>11</ele>
        <time>2021-02-25T14:01:55Z</time>
      </trkpt>
      <trkpt lat="46.20465" lon="-1.08763">
        <ele>10</ele>
        <time>2021-02-25T14:02:17Z</time>
      </trkpt>
      <trkpt lat="46.20477" lon="-1.08783">
        <ele>10</ele>
        <time>2021-02-25T14:02:41Z</time>
      </trkpt>
      <trkpt lat="46.20463" lon="-1.08816">
        <ele>10</ele>
        <time>2021-02-25T14:03:17Z</time>
      </trkpt>
      <trkpt lat="46.20458" lon="-1.08845">
        <ele>11</ele>
        <time>2021-02-25T14:03:45Z</time>
      </trkpt>
      <trkpt lat="46.20465" lon="-1.09076">
        <ele>13</ele>
        <time>2021-02-25T14:07:18Z</time>
      </trkpt>
      <trkpt lat="46.20473" lon="-1.09108">
        <ele>13</ele>
        <time>2021-02-25T14:07:50Z</time>
      </trkpt>
      <trkpt lat="46.20485" lon="-1.09129">
        <ele>13</ele>
        <time>2021-02-25T14:08:15Z</time>
      </trkpt>
      <trkpt lat="46.20509" lon="-1.09145">
        <ele>14</ele>
        <time>2021-02-25T14:08:50Z</time>
      </trkpt>
      <trkpt lat="46.20522" lon="-1.09152">
        <ele>14</ele>
        <time>2021-02-25T14:09:09Z</time>
      </trkpt>
      <trkpt lat="46.20533" lon="-1.09168">
        <ele>14</ele>
        <time>2021-02-25T14:09:29Z</time>
      </trkpt>
      <trkpt lat="46.20542" lon="-1.09201">
        <ele>15</ele>
        <time>2021-02-25T14:10:02Z</time>
      </trkpt>
      <trkpt lat="46.20551" lon="-1.0925">
        <ele>16</ele>
        <time>2021-02-25T14:10:49Z</time>
      </trkpt>
      <trkpt lat="46.20572" lon="-1.09401">
        <ele>16</ele>
        <time>2021-02-25T14:13:11Z</time>
      </trkpt>
      <trkpt lat="46.20579" lon="-1.09472">
        <ele>16</ele>
        <time>2021-02-25T14:14:17Z</time>
      </trkpt>
      <trkpt lat="46.20602" lon="-1.09475">
        <ele>16</ele>
        <time>2021-02-25T14:14:48Z</time>
      </trkpt>
    </trkseg>
  </trk>
</gpx>